createdAt,value
2022-11-16T00:04:17.145Z,100.00
2022-11-16T00:09:27.275Z,100.00
2022-11-16T00:14:32.633Z,100.00
2022-11-16T00:19:34.965Z,100.00
2022-11-16T00:24:37.059Z,100.00
2022-11-16T00:29:39.085Z,100.00
2022-11-16T00:34:41.318Z,100.00
2022-11-16T00:39:43.712Z,100.00
2022-11-16T00:44:48.068Z,100.00
2022-11-16T00:49:50.233Z,100.00
2022-11-16T00:54:53.008Z,100.00
2022-11-16T00:59:55.392Z,100.00
2022-11-16T01:04:58.731Z,100.00
2022-11-16T01:10:01.009Z,100.00
2022-11-16T01:15:04.160Z,100.00
2022-11-16T01:20:09.421Z,100.00
2022-11-16T01:25:13.397Z,100.00
2022-11-16T01:30:17.017Z,100.00
2022-11-16T01:35:29.200Z,100.00
2022-11-16T01:40:31.540Z,100.00
2022-11-16T01:45:39.036Z,100.00
2022-11-16T01:50:45.610Z,100.00
2022-11-16T01:55:49.147Z,100.00
2022-11-16T02:01:24.021Z,100.00
2022-11-16T02:07:12.586Z,100.00
2022-11-16T02:12:24.606Z,100.00
2022-11-16T02:17:51.379Z,100.00
2022-11-16T02:22:58.821Z,100.00
2022-11-16T02:28:25.944Z,100.00
2022-11-16T02:33:34.036Z,100.00
2022-11-16T02:38:41.020Z,100.00
2022-11-16T02:43:47.134Z,100.00
2022-11-16T02:48:53.633Z,100.00
2022-11-16T02:54:11.876Z,100.00
2022-11-16T02:59:17.878Z,100.00
2022-11-16T03:04:32.941Z,100.00
2022-11-16T03:09:39.298Z,100.00
2022-11-16T03:14:59.659Z,100.00
2022-11-16T03:20:06.981Z,100.00
2022-11-16T03:25:20.359Z,100.00
2022-11-16T03:30:29.809Z,100.00
2022-11-16T03:35:42.525Z,100.00
2022-11-16T03:40:47.811Z,100.00
2022-11-16T03:45:50.951Z,100.00
2022-11-16T03:50:53.849Z,100.00
2022-11-16T03:55:56.649Z,100.00
2022-11-16T04:00:59.399Z,100.00
2022-11-16T04:06:22.440Z,100.00
2022-11-16T04:11:43.303Z,100.00
2022-11-16T04:17:04.785Z,100.00
2022-11-16T04:22:36.687Z,100.00
2022-11-16T04:28:11.411Z,100.00
2022-11-16T04:33:33.272Z,100.00
2022-11-16T04:38:36.801Z,100.00
2022-11-16T04:43:39.566Z,100.00
2022-11-16T04:48:41.708Z,100.00
2022-11-16T04:53:45.047Z,100.00
2022-11-16T04:58:55.393Z,100.00
2022-11-16T05:03:58.345Z,100.00
2022-11-16T05:09:03.198Z,100.00
2022-11-16T05:14:10.476Z,100.00
2022-11-16T05:19:33.300Z,100.00
2022-11-16T05:24:37.157Z,100.00
2022-11-16T05:29:46.520Z,100.00
2022-11-16T05:34:52.138Z,100.00
2022-11-16T05:39:55.126Z,100.00
2022-11-16T05:45:02.362Z,100.00
2022-11-16T05:50:04.992Z,100.00
2022-11-16T05:55:15.706Z,100.00
2022-11-16T06:00:19.733Z,100.00
2022-11-16T06:05:26.244Z,100.00
2022-11-16T06:10:30.047Z,100.00
2022-11-16T06:15:38.409Z,100.00
2022-11-16T06:20:42.242Z,100.00
2022-11-16T06:25:45.338Z,100.00
2022-11-16T06:30:48.929Z,100.00
2022-11-16T06:35:51.463Z,100.00
2022-11-16T06:40:59.428Z,100.00
2022-11-16T06:46:04.554Z,100.00
2022-11-16T06:51:07.231Z,100.00
2022-11-16T06:56:13.833Z,100.00
2022-11-16T07:01:21.237Z,100.00
2022-11-16T07:06:27.955Z,97.31
2022-11-16T07:11:31.923Z,51.37
2022-11-16T07:16:38.346Z,40.11
2022-11-16T07:21:43.884Z,38.38
2022-11-16T07:26:51.111Z,37.81
2022-11-16T07:31:56.958Z,36.53
2022-11-16T07:37:12.121Z,39.57
2022-11-16T07:42:15.445Z,41.28
2022-11-16T07:47:40.132Z,41.42
2022-11-16T07:53:17.742Z,42.10
2022-11-16T07:58:21.249Z,41.79
2022-11-16T08:03:25.011Z,42.18
2022-11-16T08:08:29.813Z,41.67
2022-11-16T08:13:34.622Z,42.05
2022-11-16T08:18:39.093Z,41.40
2022-11-16T08:23:42.571Z,41.59
2022-11-16T08:28:47.013Z,40.48
2022-11-16T08:33:52.118Z,41.86
2022-11-16T08:38:55.418Z,42.76
2022-11-16T08:44:00.876Z,40.13
2022-11-16T08:49:04.757Z,38.42
2022-11-16T08:54:07.807Z,37.21
2022-11-16T08:59:12.859Z,37.86
2022-11-16T09:04:20.985Z,37.00
2022-11-16T09:09:23.587Z,34.83
2022-11-16T09:14:27.864Z,34.54
2022-11-16T09:19:30.075Z,32.05
2022-11-16T09:24:32.345Z,31.28
2022-11-16T09:29:34.663Z,30.42
2022-11-16T09:34:37.180Z,31.04
2022-11-16T09:39:39.457Z,30.18
2022-11-16T09:45:00.797Z,29.05
2022-11-16T09:50:06.126Z,31.33
2022-11-16T09:55:40.717Z,29.91
2022-11-16T10:00:50.395Z,29.74
2022-11-16T10:06:05.930Z,29.82
2022-11-16T10:11:17.484Z,28.41
2022-11-16T10:16:34.464Z,29.72
2022-11-16T10:21:45.557Z,30.43
2022-11-16T10:26:48.020Z,30.09
2022-11-16T10:32:08.756Z,31.29
2022-11-16T10:37:13.473Z,33.24
2022-11-16T10:42:34.355Z,32.99
2022-11-16T10:47:42.947Z,35.40
2022-11-16T10:52:45.243Z,36.58
2022-11-16T10:57:56.547Z,36.82
2022-11-16T11:02:58.750Z,38.15
2022-11-16T11:08:02.769Z,37.75
2022-11-16T11:13:07.904Z,38.93
2022-11-16T11:18:19.474Z,40.25
2022-11-16T11:23:24.462Z,40.46
2022-11-16T11:28:33.860Z,40.47
2022-11-16T11:33:39.715Z,40.16
2022-11-16T11:44:29.349Z,40.89
2022-11-16T11:49:42.391Z,40.65
2022-11-16T11:54:49.317Z,40.56
2022-11-16T11:59:54.642Z,40.80
2022-11-16T12:05:18.593Z,40.56
2022-11-16T12:10:32.906Z,41.92
2022-11-16T12:15:43.605Z,42.07
2022-11-16T12:20:46.992Z,42.54
2022-11-16T12:26:02.408Z,42.58
2022-11-16T12:31:17.726Z,42.33
2022-11-16T12:36:45.281Z,43.13
2022-11-16T12:41:53.558Z,43.76
2022-11-16T12:47:12.105Z,43.24
2022-11-16T12:52:49.721Z,43.96
2022-11-16T12:58:03.618Z,44.27
2022-11-16T13:03:33.890Z,43.63
2022-11-16T13:08:59.220Z,44.92
2022-11-16T13:14:05.581Z,46.29
2022-11-16T13:19:11.975Z,47.53
2022-11-16T13:24:44.930Z,48.10
2022-11-16T13:30:11.232Z,48.54
2022-11-16T13:35:16.048Z,48.06
2022-11-16T13:40:26.270Z,48.96
2022-11-16T13:45:38.387Z,49.10
2022-11-16T13:50:49.569Z,50.25
2022-11-16T13:56:01.335Z,55.77
2022-11-16T14:01:15.655Z,54.02
2022-11-16T14:06:26.180Z,58.21
2022-11-16T14:11:40.623Z,63.22
2022-11-16T14:16:46.371Z,65.28
2022-11-16T14:21:57.351Z,68.07
2022-11-16T14:27:10.846Z,69.11
2022-11-16T14:32:21.911Z,72.08
2022-11-16T14:37:30.086Z,73.21
2022-11-16T14:42:48.356Z,74.87
2022-11-16T14:48:17.542Z,79.95
2022-11-16T14:53:20.557Z,79.52
2022-11-16T14:58:23.917Z,82.54
2022-11-16T15:03:30.362Z,86.38
2022-11-16T15:08:47.547Z,85.83
2022-11-16T15:13:54.638Z,88.71
2022-11-16T15:19:04.928Z,88.21
2022-11-16T15:24:29.439Z,89.79
2022-11-16T15:29:32.173Z,91.69
2022-11-16T15:34:34.607Z,94.37
2022-11-16T15:39:37.224Z,94.32
2022-11-16T15:44:39.754Z,96.35
2022-11-16T15:49:44.240Z,94.86
2022-11-16T15:55:03.951Z,94.57
2022-11-16T16:00:06.827Z,95.74
2022-11-16T16:05:32.520Z,95.67
2022-11-16T16:10:34.829Z,96.56
2022-11-16T16:15:37.105Z,98.74
2022-11-16T16:20:40.693Z,100.00
2022-11-16T16:25:50.342Z,100.00
2022-11-16T16:30:59.741Z,100.00
2022-11-16T16:36:08.839Z,100.00
2022-11-16T16:41:24.458Z,100.00
2022-11-16T16:46:27.695Z,100.00
2022-11-16T16:51:29.845Z,100.00
2022-11-16T16:56:32.088Z,100.00
2022-11-16T17:01:34.410Z,100.00
2022-11-16T17:06:36.800Z,100.00
2022-11-16T17:11:39.455Z,100.00
2022-11-16T17:16:41.932Z,100.00
2022-11-16T17:21:47.014Z,100.00
2022-11-16T17:26:51.402Z,100.00
2022-11-16T17:31:55.010Z,100.00
2022-11-16T17:36:57.178Z,100.00
2022-11-16T17:42:00.447Z,100.00
2022-11-16T17:47:02.975Z,100.00
2022-11-16T17:52:05.285Z,100.00
2022-11-16T17:57:07.418Z,100.00
2022-11-16T18:02:27.709Z,100.00
2022-11-16T18:07:30.651Z,100.00
2022-11-16T18:12:32.874Z,100.00
2022-11-16T18:17:36.504Z,100.00
2022-11-16T18:22:38.873Z,100.00
2022-11-16T18:27:41.119Z,100.00
2022-11-16T18:32:43.237Z,100.00
2022-11-16T18:37:45.316Z,100.00
2022-11-16T18:42:47.678Z,100.00
2022-11-16T18:47:49.841Z,100.00
2022-11-16T18:52:51.914Z,100.00
2022-11-16T18:57:54.247Z,100.00
2022-11-16T19:02:56.383Z,100.00
2022-11-16T19:07:58.778Z,100.00
2022-11-16T19:13:01.118Z,100.00
2022-11-16T19:18:22.302Z,100.00
2022-11-16T19:23:24.933Z,100.00
2022-11-16T19:28:30.965Z,100.00
2022-11-16T19:33:33.728Z,100.00
2022-11-16T19:38:36.526Z,100.00
2022-11-16T19:43:39.101Z,100.00
2022-11-16T19:48:41.510Z,100.00
2022-11-16T19:53:44.019Z,100.00
2022-11-16T19:58:46.942Z,100.00
2022-11-16T20:03:49.974Z,100.00
2022-11-16T20:08:54.092Z,100.00
2022-11-16T20:13:58.404Z,100.00
2022-11-16T20:19:00.778Z,100.00
2022-11-16T20:24:06.845Z,100.00
2022-11-16T20:29:14.802Z,100.00
2022-11-16T20:34:18.724Z,100.00
2022-11-16T20:39:21.269Z,100.00
2022-11-16T20:44:23.510Z,100.00
2022-11-16T20:49:25.740Z,100.00
2022-11-16T20:54:27.883Z,100.00
2022-11-16T20:59:30.006Z,100.00
2022-11-16T21:04:32.180Z,100.00
2022-11-16T21:09:54.308Z,100.00
2022-11-16T21:14:56.565Z,100.00
2022-11-16T21:20:25.427Z,100.00
2022-11-16T21:25:21.231Z,100.00
2022-11-16T21:30:23.409Z,100.00
2022-11-16T21:35:27.227Z,100.00
2022-11-16T21:40:29.498Z,100.00
2022-11-16T21:45:31.630Z,100.00
2022-11-16T21:50:33.712Z,100.00
2022-11-16T21:55:35.877Z,100.00
2022-11-16T22:00:38.105Z,100.00
2022-11-16T22:06:15.857Z,100.00
2022-11-16T22:11:22.372Z,100.00
2022-11-16T22:16:24.576Z,100.00
2022-11-16T22:21:26.802Z,100.00
2022-11-16T22:26:28.994Z,100.00
2022-11-16T22:31:31.200Z,100.00
2022-11-16T22:36:33.497Z,100.00
2022-11-16T22:41:35.782Z,100.00
2022-11-16T22:46:37.975Z,100.00
2022-11-16T22:51:40.066Z,100.00
2022-11-16T22:56:43.147Z,100.00
2022-11-16T23:01:45.428Z,100.00
2022-11-16T23:06:47.526Z,100.00
2022-11-16T23:12:07.775Z,100.00
2022-11-16T23:17:09.999Z,100.00
2022-11-16T23:22:36.903Z,100.00
2022-11-16T23:27:54.159Z,100.00
2022-11-16T23:32:56.399Z,100.00
2022-11-16T23:38:00.618Z,100.00
2022-11-16T23:43:23.235Z,100.00
2022-11-16T23:48:25.456Z,100.00
2022-11-16T23:53:27.567Z,100.00
2022-11-16T23:58:29.740Z,100.00
